sensor_id;sensor_type;location;lat;lon;timestamp;temperature;humidity
1381;DHT22;684;48.342;10.096;2023-06-10T00:01:37;18.50;15.10
1381;DHT22;684;48.342;10.096;2023-06-10T00:04:04;18.50;15.10
1381;DHT22;684;48.342;10.096;2023-06-10T00:06:31;18.50;15.60
1381;DHT22;684;48.342;10.096;2023-06-10T00:09:02;18.50;15.80
1381;DHT22;684;48.342;10.096;2023-06-10T00:11:31;18.40;16.10
1381;DHT22;684;48.342;10.096;2023-06-10T00:13:58;18.40;15.90
1381;DHT22;684;48.342;10.096;2023-06-10T00:16:24;18.40;16.10
1381;DHT22;684;48.342;10.096;2023-06-10T00:18:51;18.40;15.80
1381;DHT22;684;48.342;10.096;2023-06-10T00:21:18;18.40;16.20
1381;DHT22;684;48.342;10.096;2023-06-10T00:23:45;18.30;16.20
1381;DHT22;684;48.342;10.096;2023-06-10T00:26:13;18.30;16.30
1381;DHT22;684;48.342;10.096;2023-06-10T00:28:40;18.30;16.50
1381;DHT22;684;48.342;10.096;2023-06-10T00:31:07;18.30;16.50
1381;DHT22;684;48.342;10.096;2023-06-10T00:33:34;18.20;16.50
1381;DHT22;684;48.342;10.096;2023-06-10T00:36:01;18.30;16.60
1381;DHT22;684;48.342;10.096;2023-06-10T00:38:27;18.20;16.70
1381;DHT22;684;48.342;10.096;2023-06-10T00:40:54;18.20;16.80
1381;DHT22;684;48.342;10.096;2023-06-10T00:43:22;18.20;16.80
1381;DHT22;684;48.342;10.096;2023-06-10T00:45:49;18.10;16.90
1381;DHT22;684;48.342;10.096;2023-06-10T00:48:17;18.10;16.70
1381;DHT22;684;48.342;10.096;2023-06-10T00:50:44;18.10;16.80
1381;DHT22;684;48.342;10.096;2023-06-10T00:53:12;18.10;16.80
1381;DHT22;684;48.342;10.096;2023-06-10T00:55:41;18.10;17.10
1381;DHT22;684;48.342;10.096;2023-06-10T00:58:08;18.10;17.10
1381;DHT22;684;48.342;10.096;2023-06-10T01:00:36;18.10;17.10
1381;DHT22;684;48.342;10.096;2023-06-10T01:03:03;18.10;17.00
1381;DHT22;684;48.342;10.096;2023-06-10T01:05:33;18.00;17.20
1381;DHT22;684;48.342;10.096;2023-06-10T01:08:10;18.00;17.10
1381;DHT22;684;48.342;10.096;2023-06-10T01:10:45;18.00;17.30
1381;DHT22;684;48.342;10.096;2023-06-10T01:13:13;17.90;17.40
1381;DHT22;684;48.342;10.096;2023-06-10T01:15:43;17.90;17.40
1381;DHT22;684;48.342;10.096;2023-06-10T01:18:10;17.90;17.50
1381;DHT22;684;48.342;10.096;2023-06-10T01:20:41;17.80;17.40
1381;DHT22;684;48.342;10.096;2023-06-10T01:23:10;17.80;17.60
1381;DHT22;684;48.342;10.096;2023-06-10T01:25:38;17.80;17.80
1381;DHT22;684;48.342;10.096;2023-06-10T01:28:12;17.80;17.90
1381;DHT22;684;48.342;10.096;2023-06-10T01:30:45;17.70;17.80
1381;DHT22;684;48.342;10.096;2023-06-10T01:33:15;17.70;18.00
1381;DHT22;684;48.342;10.096;2023-06-10T01:35:45;17.70;18.00
1381;DHT22;684;48.342;10.096;2023-06-10T01:38:14;17.60;18.10
1381;DHT22;684;48.342;10.096;2023-06-10T01:40:42;17.60;18.00
1381;DHT22;684;48.342;10.096;2023-06-10T01:43:09;17.60;17.90
1381;DHT22;684;48.342;10.096;2023-06-10T01:45:36;17.60;17.90
1381;DHT22;684;48.342;10.096;2023-06-10T01:48:03;17.50;18.30
1381;DHT22;684;48.342;10.096;2023-06-10T01:50:30;17.50;18.30
1381;DHT22;684;48.342;10.096;2023-06-10T01:52:57;17.40;18.20
1381;DHT22;684;48.342;10.096;2023-06-10T01:55:26;17.40;18.20
1381;DHT22;684;48.342;10.096;2023-06-10T01:57:52;17.30;18.60
1381;DHT22;684;48.342;10.096;2023-06-10T02:00:19;17.30;18.70
1381;DHT22;684;48.342;10.096;2023-06-10T02:02:46;17.30;18.90
1381;DHT22;684;48.342;10.096;2023-06-10T02:05:12;17.20;18.80
1381;DHT22;684;48.342;10.096;2023-06-10T02:07:39;17.20;19.10
1381;DHT22;684;48.342;10.096;2023-06-10T02:10:07;17.20;19.40
1381;DHT22;684;48.342;10.096;2023-06-10T02:12:35;17.20;19.40
1381;DHT22;684;48.342;10.096;2023-06-10T02:15:02;17.20;19.40
1381;DHT22;684;48.342;10.096;2023-06-10T02:17:29;17.20;19.60
1381;DHT22;684;48.342;10.096;2023-06-10T02:19:56;17.20;19.80
1381;DHT22;684;48.342;10.096;2023-06-10T02:22:23;17.10;19.70
1381;DHT22;684;48.342;10.096;2023-06-10T02:24:51;17.10;19.60
1381;DHT22;684;48.342;10.096;2023-06-10T02:27:18;17.10;20.00
1381;DHT22;684;48.342;10.096;2023-06-10T02:29:46;17.10;19.70
1381;DHT22;684;48.342;10.096;2023-06-10T02:32:13;17.10;20.00
1381;DHT22;684;48.342;10.096;2023-06-10T02:34:40;17.10;19.90
1381;DHT22;684;48.342;10.096;2023-06-10T02:37:08;17.10;20.40
1381;DHT22;684;48.342;10.096;2023-06-10T02:39:35;17.10;20.40
1381;DHT22;684;48.342;10.096;2023-06-10T02:42:01;17.10;20.00
1381;DHT22;684;48.342;10.096;2023-06-10T02:44:28;17.00;20.30
1381;DHT22;684;48.342;10.096;2023-06-10T02:46:56;17.00;20.20
1381;DHT22;684;48.342;10.096;2023-06-10T02:49:23;17.00;20.70
1381;DHT22;684;48.342;10.096;2023-06-10T02:51:50;17.00;20.90
1381;DHT22;684;48.342;10.096;2023-06-10T02:54:18;17.00;21.10
1381;DHT22;684;48.342;10.096;2023-06-10T02:56:45;16.90;21.20
1381;DHT22;684;48.342;10.096;2023-06-10T02:59:13;16.90;21.10
1381;DHT22;684;48.342;10.096;2023-06-10T03:01:40;16.90;21.20
1381;DHT22;684;48.342;10.096;2023-06-10T03:04:08;16.90;21.40
1381;DHT22;684;48.342;10.096;2023-06-10T03:06:35;16.90;21.20
1381;DHT22;684;48.342;10.096;2023-06-10T03:09:04;16.90;21.00
1381;DHT22;684;48.342;10.096;2023-06-10T03:11:32;16.90;21.20
1381;DHT22;684;48.342;10.096;2023-06-10T03:13:59;16.80;21.60
1381;DHT22;684;48.342;10.096;2023-06-10T03:16:26;16.80;22.00
1381;DHT22;684;48.342;10.096;2023-06-10T03:18:53;16.80;22.10
1381;DHT22;684;48.342;10.096;2023-06-10T03:21:21;16.80;22.20
1381;DHT22;684;48.342;10.096;2023-06-10T03:23:48;16.80;22.40
1381;DHT22;684;48.342;10.096;2023-06-10T03:26:15;16.70;22.40
1381;DHT22;684;48.342;10.096;2023-06-10T03:28:42;16.70;22.40
1381;DHT22;684;48.342;10.096;2023-06-10T03:31:08;16.70;22.30
1381;DHT22;684;48.342;10.096;2023-06-10T03:33:35;16.70;22.20
1381;DHT22;684;48.342;10.096;2023-06-10T03:36:03;16.70;22.10
1381;DHT22;684;48.342;10.096;2023-06-10T03:38:31;16.70;22.30
1381;DHT22;684;48.342;10.096;2023-06-10T03:40:58;16.80;22.80
1381;DHT22;684;48.342;10.096;2023-06-10T03:43:24;16.70;22.30
1381;DHT22;684;48.342;10.096;2023-06-10T03:45:52;16.70;22.10
1381;DHT22;684;48.342;10.096;2023-06-10T03:48:18;16.70;22.80
1381;DHT22;684;48.342;10.096;2023-06-10T03:50:45;16.70;22.30
1381;DHT22;684;48.342;10.096;2023-06-10T03:53:13;16.70;22.70
1381;DHT22;684;48.342;10.096;2023-06-10T03:55:41;16.70;23.00
1381;DHT22;684;48.342;10.096;2023-06-10T03:58:07;16.70;23.40
1381;DHT22;684;48.342;10.096;2023-06-10T04:00:34;16.70;23.50
1381;DHT22;684;48.342;10.096;2023-06-10T04:03:06;16.80;23.20
1381;DHT22;684;48.342;10.096;2023-06-10T04:05:34;16.80;22.90
1381;DHT22;684;48.342;10.096;2023-06-10T04:08:01;16.90;23.30
1381;DHT22;684;48.342;10.096;2023-06-10T04:10:28;16.90;23.30
1381;DHT22;684;48.342;10.096;2023-06-10T04:12:56;16.90;23.30
1381;DHT22;684;48.342;10.096;2023-06-10T04:15:22;17.00;23.00
1381;DHT22;684;48.342;10.096;2023-06-10T04:17:49;17.10;23.00
1381;DHT22;684;48.342;10.096;2023-06-10T04:20:16;17.10;23.00
1381;DHT22;684;48.342;10.096;2023-06-10T04:22:43;17.20;22.80
1381;DHT22;684;48.342;10.096;2023-06-10T04:25:10;17.20;22.60
1381;DHT22;684;48.342;10.096;2023-06-10T04:27:37;17.30;22.70
1381;DHT22;684;48.342;10.096;2023-06-10T04:30:06;17.50;22.60
1381;DHT22;684;48.342;10.096;2023-06-10T04:32:33;18.40;21.20
1381;DHT22;684;48.342;10.096;2023-06-10T04:35:00;19.70;18.20
1381;DHT22;684;48.342;10.096;2023-06-10T04:37:26;20.90;15.30
1381;DHT22;684;48.342;10.096;2023-06-10T04:39:54;22.00;12.90
1381;DHT22;684;48.342;10.096;2023-06-10T04:42:21;23.00;10.70
1381;DHT22;684;48.342;10.096;2023-06-10T04:44:48;23.90;8.90
1381;DHT22;684;48.342;10.096;2023-06-10T04:47:16;24.60;7.40
1381;DHT22;684;48.342;10.096;2023-06-10T04:49:43;25.40;5.60
1381;DHT22;684;48.342;10.096;2023-06-10T04:52:10;26.00;4.30
1381;DHT22;684;48.342;10.096;2023-06-10T04:54:36;26.30;3.40
1381;DHT22;684;48.342;10.096;2023-06-10T04:57:04;25.70;4.10
1381;DHT22;684;48.342;10.096;2023-06-10T04:59:33;26.10;4.40
1381;DHT22;684;48.342;10.096;2023-06-10T05:02:03;27.10;3.20
1381;DHT22;684;48.342;10.096;2023-06-10T05:04:31;28.10;1.30
1381;DHT22;684;48.342;10.096;2023-06-10T05:06:58;29.00;1.00
1381;DHT22;684;48.342;10.096;2023-06-10T05:09:24;29.80;1.00
1381;DHT22;684;48.342;10.096;2023-06-10T05:11:52;30.50;1.00
1381;DHT22;684;48.342;10.096;2023-06-10T05:14:19;31.10;1.00
1381;DHT22;684;48.342;10.096;2023-06-10T05:16:47;31.80;1.00
1381;DHT22;684;48.342;10.096;2023-06-10T05:19:14;32.30;1.00
1381;DHT22;684;48.342;10.096;2023-06-10T05:21:44;33.00;1.00
1381;DHT22;684;48.342;10.096;2023-06-10T05:24:11;33.60;1.00
1381;DHT22;684;48.342;10.096;2023-06-10T05:26:38;34.30;1.00
1381;DHT22;684;48.342;10.096;2023-06-10T05:29:07;34.80;1.00
1381;DHT22;684;48.342;10.096;2023-06-10T05:31:34;35.10;1.00
1381;DHT22;684;48.342;10.096;2023-06-10T05:34:01;35.60;1.00
1381;DHT22;684;48.342;10.096;2023-06-10T05:36:27;36.10;1.00
1381;DHT22;684;48.342;10.096;2023-06-10T05:38:56;36.70;1.00
1381;DHT22;684;48.342;10.096;2023-06-10T05:41:23;37.30;1.00
1381;DHT22;684;48.342;10.096;2023-06-10T05:43:50;37.70;1.00
1381;DHT22;684;48.342;10.096;2023-06-10T05:46:17;38.30;1.00
1381;DHT22;684;48.342;10.096;2023-06-10T05:48:44;38.70;1.00
1381;DHT22;684;48.342;10.096;2023-06-10T05:51:10;39.20;1.00
1381;DHT22;684;48.342;10.096;2023-06-10T05:53:37;39.40;1.00
1381;DHT22;684;48.342;10.096;2023-06-10T05:56:06;39.80;1.00
1381;DHT22;684;48.342;10.096;2023-06-10T05:58:33;40.20;1.00
1381;DHT22;684;48.342;10.096;2023-06-10T06:01:00;40.60;1.00
1381;DHT22;684;48.342;10.096;2023-06-10T06:03:26;40.80;1.00
1381;DHT22;684;48.342;10.096;2023-06-10T06:05:54;41.20;1.00
1381;DHT22;684;48.342;10.096;2023-06-10T06:08:20;41.60;1.00
1381;DHT22;684;48.342;10.096;2023-06-10T06:10:47;41.90;1.00
1381;DHT22;684;48.342;10.096;2023-06-10T06:13:15;42.30;1.00
1381;DHT22;684;48.342;10.096;2023-06-10T06:15:42;42.60;1.00
1381;DHT22;684;48.342;10.096;2023-06-10T06:18:09;43.00;1.00
1381;DHT22;684;48.342;10.096;2023-06-10T06:20:35;43.40;1.00
1381;DHT22;684;48.342;10.096;2023-06-10T06:23:02;44.20;1.00
1381;DHT22;684;48.342;10.096;2023-06-10T06:25:29;44.70;1.00
1381;DHT22;684;48.342;10.096;2023-06-10T06:27:56;45.20;1.00
1381;DHT22;684;48.342;10.096;2023-06-10T06:30:24;46.00;1.00
1381;DHT22;684;48.342;10.096;2023-06-10T06:32:50;46.80;1.00
1381;DHT22;684;48.342;10.096;2023-06-10T06:35:18;47.40;1.00
1381;DHT22;684;48.342;10.096;2023-06-10T06:37:44;48.00;1.00
1381;DHT22;684;48.342;10.096;2023-06-10T06:40:12;47.80;1.00
1381;DHT22;684;48.342;10.096;2023-06-10T06:42:39;48.20;1.00
1381;DHT22;684;48.342;10.096;2023-06-10T06:45:06;48.90;1.00
1381;DHT22;684;48.342;10.096;2023-06-10T06:47:34;49.30;1.00
1381;DHT22;684;48.342;10.096;2023-06-10T06:50:01;49.70;1.00
1381;DHT22;684;48.342;10.096;2023-06-10T06:52:28;50.10;1.00
1381;DHT22;684;48.342;10.096;2023-06-10T06:54:55;50.40;1.00
1381;DHT22;684;48.342;10.096;2023-06-10T06:57:21;50.70;1.00
1381;DHT22;684;48.342;10.096;2023-06-10T06:59:48;51.00;1.00
1381;DHT22;684;48.342;10.096;2023-06-10T07:02:15;51.40;1.00
1381;DHT22;684;48.342;10.096;2023-06-10T07:04:43;51.90;1.00
1381;DHT22;684;48.342;10.096;2023-06-10T07:07:11;51.80;1.00
1381;DHT22;684;48.342;10.096;2023-06-10T07:09:38;51.40;1.00
1381;DHT22;684;48.342;10.096;2023-06-10T07:12:05;50.90;1.00
1381;DHT22;684;48.342;10.096;2023-06-10T07:14:32;51.30;1.00
1381;DHT22;684;48.342;10.096;2023-06-10T07:16:59;51.60;1.00
1381;DHT22;684;48.342;10.096;2023-06-10T07:19:26;52.00;1.00
1381;DHT22;684;48.342;10.096;2023-06-10T07:21:54;52.60;1.00
1381;DHT22;684;48.342;10.096;2023-06-10T07:24:21;52.90;1.00
1381;DHT22;684;48.342;10.096;2023-06-10T07:26:47;53.20;1.00
1381;DHT22;684;48.342;10.096;2023-06-10T07:29:14;53.60;1.00
1381;DHT22;684;48.342;10.096;2023-06-10T07:31:41;54.00;1.00
1381;DHT22;684;48.342;10.096;2023-06-10T07:34:07;53.70;1.00
1381;DHT22;684;48.342;10.096;2023-06-10T07:36:34;52.80;1.00
1381;DHT22;684;48.342;10.096;2023-06-10T07:39:04;52.00;1.00
1381;DHT22;684;48.342;10.096;2023-06-10T07:41:31;52.40;1.00
1381;DHT22;684;48.342;10.096;2023-06-10T07:43:58;53.20;1.00
1381;DHT22;684;48.342;10.096;2023-06-10T07:46:24;53.30;1.00
1381;DHT22;684;48.342;10.096;2023-06-10T07:48:53;53.50;1.00
1381;DHT22;684;48.342;10.096;2023-06-10T07:51:20;54.00;1.00
1381;DHT22;684;48.342;10.096;2023-06-10T07:53:47;53.70;1.00
1381;DHT22;684;48.342;10.096;2023-06-10T07:56:15;54.00;1.00
1381;DHT22;684;48.342;10.096;2023-06-10T07:58:42;54.30;1.00
1381;DHT22;684;48.342;10.096;2023-06-10T08:01:09;54.30;1.00
1381;DHT22;684;48.342;10.096;2023-06-10T08:03:36;54.20;1.00
1381;DHT22;684;48.342;10.096;2023-06-10T08:06:02;54.90;1.00
1381;DHT22;684;48.342;10.096;2023-06-10T08:11:38;55.50;1.00
1381;DHT22;684;48.342;10.096;2023-06-10T08:14:05;55.90;1.00
1381;DHT22;684;48.342;10.096;2023-06-10T08:16:31;55.80;1.00
1381;DHT22;684;48.342;10.096;2023-06-10T08:18:58;55.70;1.00
1381;DHT22;684;48.342;10.096;2023-06-10T08:21:25;55.80;1.00
1381;DHT22;684;48.342;10.096;2023-06-10T08:23:54;55.80;1.00
1381;DHT22;684;48.342;10.096;2023-06-10T08:26:20;55.90;1.00
1381;DHT22;684;48.342;10.096;2023-06-10T08:28:49;55.20;1.00
1381;DHT22;684;48.342;10.096;2023-06-10T08:31:15;53.90;1.00
1381;DHT22;684;48.342;10.096;2023-06-10T08:33:42;53.20;1.00
1381;DHT22;684;48.342;10.096;2023-06-10T08:36:09;53.30;1.00
1381;DHT22;684;48.342;10.096;2023-06-10T08:38:36;54.30;1.00
1381;DHT22;684;48.342;10.096;2023-06-10T08:41:05;55.00;1.00
1381;DHT22;684;48.342;10.096;2023-06-10T08:43:34;55.30;1.00
1381;DHT22;684;48.342;10.096;2023-06-10T08:46:04;55.40;1.00
1381;DHT22;684;48.342;10.096;2023-06-10T08:48:34;56.10;1.00
1381;DHT22;684;48.342;10.096;2023-06-10T08:51:04;56.40;1.00
1381;DHT22;684;48.342;10.096;2023-06-10T08:53:32;56.50;1.00
1381;DHT22;684;48.342;10.096;2023-06-10T08:56:02;56.30;1.00
1381;DHT22;684;48.342;10.096;2023-06-10T08:58:31;56.40;1.00
1381;DHT22;684;48.342;10.096;2023-06-10T09:01:01;56.60;1.00
1381;DHT22;684;48.342;10.096;2023-06-10T09:03:29;56.50;1.00
1381;DHT22;684;48.342;10.096;2023-06-10T09:05:57;56.00;1.00
1381;DHT22;684;48.342;10.096;2023-06-10T09:08:24;56.10;1.00
1381;DHT22;684;48.342;10.096;2023-06-10T09:10:51;56.50;1.00
1381;DHT22;684;48.342;10.096;2023-06-10T09:13:18;56.00;1.00
1381;DHT22;684;48.342;10.096;2023-06-10T09:15:45;55.70;1.00
1381;DHT22;684;48.342;10.096;2023-06-10T09:18:12;55.20;1.00
1381;DHT22;684;48.342;10.096;2023-06-10T09:20:42;53.80;1.00
1381;DHT22;684;48.342;10.096;2023-06-10T09:23:09;51.00;1.00
1381;DHT22;684;48.342;10.096;2023-06-10T09:25:37;48.80;1.00
1381;DHT22;684;48.342;10.096;2023-06-10T09:28:08;46.50;1.00
1381;DHT22;684;48.342;10.096;2023-06-10T09:30:38;44.60;1.00
1381;DHT22;684;48.342;10.096;2023-06-10T09:33:10;42.40;1.00
1381;DHT22;684;48.342;10.096;2023-06-10T09:35:46;40.70;1.00
1381;DHT22;684;48.342;10.096;2023-06-10T09:38:14;39.60;1.00
1381;DHT22;684;48.342;10.096;2023-06-10T09:40:49;38.60;1.00
1381;DHT22;684;48.342;10.096;2023-06-10T09:43:16;37.70;1.00
1381;DHT22;684;48.342;10.096;2023-06-10T09:45:43;36.90;1.00
1381;DHT22;684;48.342;10.096;2023-06-10T09:48:10;36.20;1.00
1381;DHT22;684;48.342;10.096;2023-06-10T09:50:41;35.60;1.00
1381;DHT22;684;48.342;10.096;2023-06-10T09:53:10;34.80;1.00
1381;DHT22;684;48.342;10.096;2023-06-10T09:55:38;34.30;1.00
1381;DHT22;684;48.342;10.096;2023-06-10T09:58:05;33.70;1.00
1381;DHT22;684;48.342;10.096;2023-06-10T10:00:32;33.40;1.00
1381;DHT22;684;48.342;10.096;2023-06-10T10:03:00;33.30;1.00
1381;DHT22;684;48.342;10.096;2023-06-10T10:05:27;33.30;1.00
1381;DHT22;684;48.342;10.096;2023-06-10T10:07:55;33.10;1.00
1381;DHT22;684;48.342;10.096;2023-06-10T10:10:24;32.80;1.00
1381;DHT22;684;48.342;10.096;2023-06-10T10:12:54;32.30;1.00
1381;DHT22;684;48.342;10.096;2023-06-10T10:15:24;31.90;1.00
1381;DHT22;684;48.342;10.096;2023-06-10T10:17:55;31.60;1.00
1381;DHT22;684;48.342;10.096;2023-06-10T10:20:29;31.50;1.00
1381;DHT22;684;48.342;10.096;2023-06-10T10:22:57;31.10;1.00
1381;DHT22;684;48.342;10.096;2023-06-10T10:25:28;30.90;1.00
1381;DHT22;684;48.342;10.096;2023-06-10T10:27:58;30.90;1.00
1381;DHT22;684;48.342;10.096;2023-06-10T10:30:25;30.70;1.00
1381;DHT22;684;48.342;10.096;2023-06-10T10:32:57;30.50;1.00
1381;DHT22;684;48.342;10.096;2023-06-10T10:35:25;30.20;1.00
1381;DHT22;684;48.342;10.096;2023-06-10T10:37:53;30.20;1.00
1381;DHT22;684;48.342;10.096;2023-06-10T10:40:21;30.30;1.00
1381;DHT22;684;48.342;10.096;2023-06-10T10:42:49;30.50;1.00
1381;DHT22;684;48.342;10.096;2023-06-10T10:45:16;30.40;1.00
1381;DHT22;684;48.342;10.096;2023-06-10T10:47:45;30.40;1.00
1381;DHT22;684;48.342;10.096;2023-06-10T10:50:16;30.40;1.00
1381;DHT22;684;48.342;10.096;2023-06-10T10:52:51;30.30;1.00
1381;DHT22;684;48.342;10.096;2023-06-10T10:55:19;30.40;1.00
1381;DHT22;684;48.342;10.096;2023-06-10T10:57:55;30.40;1.00
1381;DHT22;684;48.342;10.096;2023-06-10T11:00:28;30.20;1.00
1381;DHT22;684;48.342;10.096;2023-06-10T11:02:58;30.10;1.00
1381;DHT22;684;48.342;10.096;2023-06-10T11:05:36;30.10;1.00
1381;DHT22;684;48.342;10.096;2023-06-10T11:08:04;29.90;1.00
1381;DHT22;684;48.342;10.096;2023-06-10T11:10:32;29.80;1.00
1381;DHT22;684;48.342;10.096;2023-06-10T11:13:02;29.70;1.00
1381;DHT22;684;48.342;10.096;2023-06-10T11:15:31;29.60;1.00
1381;DHT22;684;48.342;10.096;2023-06-10T11:18:20;29.50;1.00
1381;DHT22;684;48.342;10.096;2023-06-10T11:20:55;29.20;1.00
1381;DHT22;684;48.342;10.096;2023-06-10T11:23:40;28.90;1.00
1381;DHT22;684;48.342;10.096;2023-06-10T11:26:18;28.70;1.00
1381;DHT22;684;48.342;10.096;2023-06-10T11:29:07;28.70;1.00
1381;DHT22;684;48.342;10.096;2023-06-10T11:31:42;28.70;1.00
1381;DHT22;684;48.342;10.096;2023-06-10T11:34:09;28.70;1.00
1381;DHT22;684;48.342;10.096;2023-06-10T11:36:38;28.60;1.00
1381;DHT22;684;48.342;10.096;2023-06-10T11:39:09;28.60;1.00
1381;DHT22;684;48.342;10.096;2023-06-10T11:41:37;28.60;1.00
1381;DHT22;684;48.342;10.096;2023-06-10T11:44:08;28.60;1.00
1381;DHT22;684;48.342;10.096;2023-06-10T11:46:35;28.60;1.00
1381;DHT22;684;48.342;10.096;2023-06-10T11:49:03;28.50;1.00
1381;DHT22;684;48.342;10.096;2023-06-10T11:51:33;28.30;1.00
1381;DHT22;684;48.342;10.096;2023-06-10T11:54:00;28.10;1.00
1381;DHT22;684;48.342;10.096;2023-06-10T11:56:29;27.90;1.00
1381;DHT22;684;48.342;10.096;2023-06-10T11:58:57;27.70;1.00
1381;DHT22;684;48.342;10.096;2023-06-10T12:01:27;27.60;1.00
1381;DHT22;684;48.342;10.096;2023-06-10T12:03:59;27.50;1.00
1381;DHT22;684;48.342;10.096;2023-06-10T12:06:25;27.50;1.00
1381;DHT22;684;48.342;10.096;2023-06-10T12:08:53;27.60;1.00
1381;DHT22;684;48.342;10.096;2023-06-10T12:11:21;27.70;1.00
1381;DHT22;684;48.342;10.096;2023-06-10T12:13:49;27.70;1.00
1381;DHT22;684;48.342;10.096;2023-06-10T12:16:17;27.80;1.00
1381;DHT22;684;48.342;10.096;2023-06-10T12:18:46;27.80;1.00
1381;DHT22;684;48.342;10.096;2023-06-10T12:21:19;27.80;1.00
1381;DHT22;684;48.342;10.096;2023-06-10T12:24:03;27.90;1.00
1381;DHT22;684;48.342;10.096;2023-06-10T12:26:38;28.10;1.00
1381;DHT22;684;48.342;10.096;2023-06-10T12:29:18;28.20;1.00
1381;DHT22;684;48.342;10.096;2023-06-10T12:31:57;28.30;1.00
1381;DHT22;684;48.342;10.096;2023-06-10T12:34:36;28.20;1.00
1381;DHT22;684;48.342;10.096;2023-06-10T12:37:05;28.20;1.00
1381;DHT22;684;48.342;10.096;2023-06-10T12:39:33;28.20;1.00
1381;DHT22;684;48.342;10.096;2023-06-10T12:42:00;28.10;1.00
1381;DHT22;684;48.342;10.096;2023-06-10T12:44:34;27.90;1.00
1381;DHT22;684;48.342;10.096;2023-06-10T12:47:07;27.80;1.00
1381;DHT22;684;48.342;10.096;2023-06-10T12:49:37;27.90;1.00
1381;DHT22;684;48.342;10.096;2023-06-10T12:52:04;27.90;1.00
1381;DHT22;684;48.342;10.096;2023-06-10T12:54:31;27.90;1.00
1381;DHT22;684;48.342;10.096;2023-06-10T12:56:58;27.90;1.00
1381;DHT22;684;48.342;10.096;2023-06-10T12:59:25;27.90;1.00
1381;DHT22;684;48.342;10.096;2023-06-10T13:01:52;27.80;1.00
1381;DHT22;684;48.342;10.096;2023-06-10T13:04:20;27.80;1.00
1381;DHT22;684;48.342;10.096;2023-06-10T13:06:48;27.70;1.00
1381;DHT22;684;48.342;10.096;2023-06-10T13:09:15;27.60;1.00
1381;DHT22;684;48.342;10.096;2023-06-10T13:11:42;27.60;1.00
1381;DHT22;684;48.342;10.096;2023-06-10T13:14:10;27.50;1.00
1381;DHT22;684;48.342;10.096;2023-06-10T13:16:37;27.30;1.00
1381;DHT22;684;48.342;10.096;2023-06-10T13:19:05;27.20;1.00
1381;DHT22;684;48.342;10.096;2023-06-10T13:21:32;27.10;1.00
1381;DHT22;684;48.342;10.096;2023-06-10T13:24:00;27.10;1.00
1381;DHT22;684;48.342;10.096;2023-06-10T13:26:27;27.00;1.20
1381;DHT22;684;48.342;10.096;2023-06-10T13:28:54;27.10;1.00
1381;DHT22;684;48.342;10.096;2023-06-10T13:31:21;27.10;1.00
1381;DHT22;684;48.342;10.096;2023-06-10T13:33:48;27.00;1.00
1381;DHT22;684;48.342;10.096;2023-06-10T13:36:14;27.00;1.00
1381;DHT22;684;48.342;10.096;2023-06-10T13:38:41;27.00;1.00
1381;DHT22;684;48.342;10.096;2023-06-10T13:41:09;26.90;1.00
1381;DHT22;684;48.342;10.096;2023-06-10T13:43:37;26.90;1.00
1381;DHT22;684;48.342;10.096;2023-06-10T13:46:04;26.80;1.00
1381;DHT22;684;48.342;10.096;2023-06-10T13:48:31;26.80;1.00
1381;DHT22;684;48.342;10.096;2023-06-10T13:50:58;26.70;1.00
1381;DHT22;684;48.342;10.096;2023-06-10T13:53:26;26.70;1.00
1381;DHT22;684;48.342;10.096;2023-06-10T13:55:52;26.70;1.00
1381;DHT22;684;48.342;10.096;2023-06-10T13:58:20;26.60;1.00
1381;DHT22;684;48.342;10.096;2023-06-10T14:00:47;26.60;1.00
1381;DHT22;684;48.342;10.096;2023-06-10T14:03:14;26.60;1.00
1381;DHT22;684;48.342;10.096;2023-06-10T14:05:41;26.60;1.00
1381;DHT22;684;48.342;10.096;2023-06-10T14:08:08;26.60;1.00
1381;DHT22;684;48.342;10.096;2023-06-10T14:10:35;26.60;1.00
1381;DHT22;684;48.342;10.096;2023-06-10T14:13:01;26.60;1.00
1381;DHT22;684;48.342;10.096;2023-06-10T14:15:30;26.60;1.00
1381;DHT22;684;48.342;10.096;2023-06-10T14:17:57;26.60;1.00
1381;DHT22;684;48.342;10.096;2023-06-10T14:20:24;26.50;1.60
1381;DHT22;684;48.342;10.096;2023-06-10T14:22:52;26.50;1.40
1381;DHT22;684;48.342;10.096;2023-06-10T14:25:19;26.50;1.00
1381;DHT22;684;48.342;10.096;2023-06-10T14:27:45;26.50;1.00
1381;DHT22;684;48.342;10.096;2023-06-10T14:30:13;26.40;1.00
1381;DHT22;684;48.342;10.096;2023-06-10T14:32:41;26.40;1.00
1381;DHT22;684;48.342;10.096;2023-06-10T14:35:08;26.30;1.00
1381;DHT22;684;48.342;10.096;2023-06-10T14:37:35;26.30;1.00
1381;DHT22;684;48.342;10.096;2023-06-10T14:40:02;26.20;1.20
1381;DHT22;684;48.342;10.096;2023-06-10T14:42:30;26.20;1.00
1381;DHT22;684;48.342;10.096;2023-06-10T14:44:58;26.20;1.30
1381;DHT22;684;48.342;10.096;2023-06-10T14:47:25;26.10;1.90
1381;DHT22;684;48.342;10.096;2023-06-10T14:49:53;26.10;2.00
1381;DHT22;684;48.342;10.096;2023-06-10T14:52:20;26.10;2.40
1381;DHT22;684;48.342;10.096;2023-06-10T14:54:46;26.10;3.00
1381;DHT22;684;48.342;10.096;2023-06-10T14:57:13;26.10;2.50
1381;DHT22;684;48.342;10.096;2023-06-10T14:59:40;26.10;2.30
1381;DHT22;684;48.342;10.096;2023-06-10T15:02:07;26.10;1.20
1381;DHT22;684;48.342;10.096;2023-06-10T15:04:34;26.10;1.10
1381;DHT22;684;48.342;10.096;2023-06-10T15:07:02;26.10;1.00
1381;DHT22;684;48.342;10.096;2023-06-10T15:09:28;26.10;1.00
1381;DHT22;684;48.342;10.096;2023-06-10T15:11:55;26.10;1.40
1381;DHT22;684;48.342;10.096;2023-06-10T15:14:22;26.10;1.40
1381;DHT22;684;48.342;10.096;2023-06-10T15:16:48;26.10;1.60
1381;DHT22;684;48.342;10.096;2023-06-10T15:19:15;26.10;1.90
1381;DHT22;684;48.342;10.096;2023-06-10T15:21:42;26.10;1.70
1381;DHT22;684;48.342;10.096;2023-06-10T15:24:10;26.10;1.40
1381;DHT22;684;48.342;10.096;2023-06-10T15:26:37;26.10;1.10
1381;DHT22;684;48.342;10.096;2023-06-10T15:29:03;26.10;1.40
1381;DHT22;684;48.342;10.096;2023-06-10T15:31:31;26.10;1.20
1381;DHT22;684;48.342;10.096;2023-06-10T15:33:58;26.10;1.60
1381;DHT22;684;48.342;10.096;2023-06-10T15:36:25;26.10;1.50
1381;DHT22;684;48.342;10.096;2023-06-10T15:38:52;26.10;1.00
1381;DHT22;684;48.342;10.096;2023-06-10T15:41:20;26.10;1.20
1381;DHT22;684;48.342;10.096;2023-06-10T15:43:47;26.10;1.00
1381;DHT22;684;48.342;10.096;2023-06-10T15:46:13;26.10;1.20
1381;DHT22;684;48.342;10.096;2023-06-10T15:48:40;26.10;1.40
1381;DHT22;684;48.342;10.096;2023-06-10T15:51:07;26.10;1.80
1381;DHT22;684;48.342;10.096;2023-06-10T15:53:34;26.10;2.10
1381;DHT22;684;48.342;10.096;2023-06-10T15:56:01;26.20;2.20
1381;DHT22;684;48.342;10.096;2023-06-10T15:58:29;26.20;1.90
1381;DHT22;684;48.342;10.096;2023-06-10T16:00:56;26.20;2.00
1381;DHT22;684;48.342;10.096;2023-06-10T16:03:23;26.20;1.90
1381;DHT22;684;48.342;10.096;2023-06-10T16:05:49;26.20;1.50
1381;DHT22;684;48.342;10.096;2023-06-10T16:08:16;26.30;2.00
1381;DHT22;684;48.342;10.096;2023-06-10T16:10:43;26.20;2.30
1381;DHT22;684;48.342;10.096;2023-06-10T16:13:10;26.20;2.60
1381;DHT22;684;48.342;10.096;2023-06-10T16:15:38;26.20;2.40
1381;DHT22;684;48.342;10.096;2023-06-10T16:18:05;26.20;2.00
1381;DHT22;684;48.342;10.096;2023-06-10T16:20:32;26.10;2.10